sensor_id;sensor_type;location;lat;lon;timestamp;P1;durP1;ratioP1;P2;durP2;ratioP2
36585;SDS011;22591;48.314;11.562;2023-11-19T00:00:35;0.40;;;0.40;;
36585;SDS011;22591;48.314;11.562;2023-11-19T00:03:02;0.40;;;0.40;;
36585;SDS011;22591;48.314;11.562;2023-11-19T00:05:29;0.47;;;0.30;;
36585;SDS011;22591;48.314;11.562;2023-11-19T00:07:56;0.40;;;0.40;;
36585;SDS011;22591;48.314;11.562;2023-11-19T00:10:22;0.30;;;0.30;;
36585;SDS011;22591;48.314;11.562;2023-11-19T00:12:49;0.40;;;0.40;;
36585;SDS011;22591;48.314;11.562;2023-11-19T00:15:17;0.30;;;0.30;;
36585;SDS011;22591;48.314;11.562;2023-11-19T00:17:49;0.28;;;0.28;;
36585;SDS011;22591;48.314;11.562;2023-11-19T00:22:43;0.43;;;0.43;;
36585;SDS011;22591;48.314;11.562;2023-11-19T00:25:11;0.40;;;0.40;;
36585;SDS011;22591;48.314;11.562;2023-11-19T00:27:38;0.43;;;0.43;;
36585;SDS011;22591;48.314;11.562;2023-11-19T00:30:05;0.40;;;0.30;;
36585;SDS011;22591;48.314;11.562;2023-11-19T00:32:32;0.40;;;0.40;;
36585;SDS011;22591;48.314;11.562;2023-11-19T00:34:59;0.32;;;0.32;;
36585;SDS011;22591;48.314;11.562;2023-11-19T00:37:26;0.40;;;0.40;;
36585;SDS011;22591;48.314;11.562;2023-11-19T00:39:54;0.38;;;0.38;;
36585;SDS011;22591;48.314;11.562;2023-11-19T00:42:24;0.30;;;0.30;;
36585;SDS011;22591;48.314;11.562;2023-11-19T00:44:51;0.28;;;0.28;;
36585;SDS011;22591;48.314;11.562;2023-11-19T00:47:17;0.30;;;0.30;;
36585;SDS011;22591;48.314;11.562;2023-11-19T00:49:47;1.23;;;0.30;;
36585;SDS011;22591;48.314;11.562;2023-11-19T00:52:15;0.55;;;0.55;;
36585;SDS011;22591;48.314;11.562;2023-11-19T00:54:45;0.40;;;0.40;;
36585;SDS011;22591;48.314;11.562;2023-11-19T00:57:11;0.30;;;0.30;;
36585;SDS011;22591;48.314;11.562;2023-11-19T00:59:37;0.35;;;0.35;;
36585;SDS011;22591;48.314;11.562;2023-11-19T01:02:06;0.30;;;0.30;;
36585;SDS011;22591;48.314;11.562;2023-11-19T01:04:38;0.52;;;0.40;;
36585;SDS011;22591;48.314;11.562;2023-11-19T01:07:05;0.50;;;0.30;;
36585;SDS011;22591;48.314;11.562;2023-11-19T01:09:32;0.25;;;0.25;;
36585;SDS011;22591;48.314;11.562;2023-11-19T01:12:01;0.30;;;0.30;;
36585;SDS011;22591;48.314;11.562;2023-11-19T01:14:28;0.45;;;0.45;;
36585;SDS011;22591;48.314;11.562;2023-11-19T01:16:55;1.25;;;0.30;;
36585;SDS011;22591;48.314;11.562;2023-11-19T01:19:22;0.32;;;0.32;;
36585;SDS011;22591;48.314;11.562;2023-11-19T01:21:50;0.30;;;0.30;;
36585;SDS011;22591;48.314;11.562;2023-11-19T01:24:16;0.40;;;0.40;;
36585;SDS011;22591;48.314;11.562;2023-11-19T01:26:43;0.30;;;0.28;;
36585;SDS011;22591;48.314;11.562;2023-11-19T01:29:12;0.28;;;0.28;;
36585;SDS011;22591;48.314;11.562;2023-11-19T01:31:42;0.30;;;0.30;;
36585;SDS011;22591;48.314;11.562;2023-11-19T01:34:10;0.20;;;0.20;;
36585;SDS011;22591;48.314;11.562;2023-11-19T01:36:37;0.30;;;0.30;;
36585;SDS011;22591;48.314;11.562;2023-11-19T01:39:04;0.20;;;0.20;;
36585;SDS011;22591;48.314;11.562;2023-11-19T01:41:33;0.30;;;0.30;;
36585;SDS011;22591;48.314;11.562;2023-11-19T01:44:02;0.40;;;0.40;;
36585;SDS011;22591;48.314;11.562;2023-11-19T01:46:29;0.38;;;0.38;;
36585;SDS011;22591;48.314;11.562;2023-11-19T01:48:58;0.30;;;0.30;;
36585;SDS011;22591;48.314;11.562;2023-11-19T01:51:26;0.30;;;0.30;;
36585;SDS011;22591;48.314;11.562;2023-11-19T01:53:54;0.50;;;0.30;;
36585;SDS011;22591;48.314;11.562;2023-11-19T01:56:23;0.30;;;0.30;;
36585;SDS011;22591;48.314;11.562;2023-11-19T01:58:52;0.30;;;0.30;;
36585;SDS011;22591;48.314;11.562;2023-11-19T02:01:20;0.28;;;0.28;;
36585;SDS011;22591;48.314;11.562;2023-11-19T02:03:48;0.30;;;0.30;;
36585;SDS011;22591;48.314;11.562;2023-11-19T02:06:13;0.30;;;0.30;;
36585;SDS011;22591;48.314;11.562;2023-11-19T02:08:40;0.30;;;0.30;;
36585;SDS011;22591;48.314;11.562;2023-11-19T02:11:06;0.20;;;0.20;;
36585;SDS011;22591;48.314;11.562;2023-11-19T02:13:33;0.28;;;0.28;;
36585;SDS011;22591;48.314;11.562;2023-11-19T02:16:02;0.30;;;0.30;;
36585;SDS011;22591;48.314;11.562;2023-11-19T02:18:28;0.30;;;0.30;;
36585;SDS011;22591;48.314;11.562;2023-11-19T02:20:56;0.25;;;0.25;;
36585;SDS011;22591;48.314;11.562;2023-11-19T02:23:25;0.40;;;0.40;;
36585;SDS011;22591;48.314;11.562;2023-11-19T02:28:42;0.22;;;0.22;;
36585;SDS011;22591;48.314;11.562;2023-11-19T02:31:08;0.30;;;0.30;;
36585;SDS011;22591;48.314;11.562;2023-11-19T02:33:37;0.30;;;0.30;;
36585;SDS011;22591;48.314;11.562;2023-11-19T02:36:05;0.30;;;0.30;;
36585;SDS011;22591;48.314;11.562;2023-11-19T02:38:32;0.40;;;0.40;;
36585;SDS011;22591;48.314;11.562;2023-11-19T02:41:04;0.30;;;0.30;;
36585;SDS011;22591;48.314;11.562;2023-11-19T02:43:37;1.33;;;0.20;;
36585;SDS011;22591;48.314;11.562;2023-11-19T02:46:05;0.30;;;0.30;;
36585;SDS011;22591;48.314;11.562;2023-11-19T02:48:37;0.40;;;0.40;;
36585;SDS011;22591;48.314;11.562;2023-11-19T02:51:03;0.30;;;0.30;;
36585;SDS011;22591;48.314;11.562;2023-11-19T02:53:30;0.30;;;0.30;;
36585;SDS011;22591;48.314;11.562;2023-11-19T02:55:56;0.30;;;0.30;;
36585;SDS011;22591;48.314;11.562;2023-11-19T02:58:31;0.30;;;0.30;;
36585;SDS011;22591;48.314;11.562;2023-11-19T03:00:56;0.45;;;0.30;;
36585;SDS011;22591;48.314;11.562;2023-11-19T03:03:24;0.30;;;0.30;;
36585;SDS011;22591;48.314;11.562;2023-11-19T03:05:57;0.28;;;0.28;;
36585;SDS011;22591;48.314;11.562;2023-11-19T03:08:24;0.57;;;0.40;;
36585;SDS011;22591;48.314;11.562;2023-11-19T03:10:50;0.20;;;0.20;;
36585;SDS011;22591;48.314;11.562;2023-11-19T03:13:17;0.28;;;0.28;;
36585;SDS011;22591;48.314;11.562;2023-11-19T03:15:44;0.20;;;0.20;;
36585;SDS011;22591;48.314;11.562;2023-11-19T03:18:11;0.20;;;0.20;;
36585;SDS011;22591;48.314;11.562;2023-11-19T03:20:38;0.30;;;0.30;;
36585;SDS011;22591;48.314;11.562;2023-11-19T03:23:05;0.20;;;0.20;;
36585;SDS011;22591;48.314;11.562;2023-11-19T03:25:32;0.20;;;0.20;;
36585;SDS011;22591;48.314;11.562;2023-11-19T03:28:00;0.30;;;0.30;;
36585;SDS011;22591;48.314;11.562;2023-11-19T03:30:28;0.20;;;0.20;;
36585;SDS011;22591;48.314;11.562;2023-11-19T03:32:56;1.23;;;0.40;;
36585;SDS011;22591;48.314;11.562;2023-11-19T03:35:23;0.30;;;0.30;;
36585;SDS011;22591;48.314;11.562;2023-11-19T03:37:50;0.40;;;0.40;;
36585;SDS011;22591;48.314;11.562;2023-11-19T03:40:18;0.30;;;0.30;;
36585;SDS011;22591;48.314;11.562;2023-11-19T03:42:45;0.20;;;0.20;;
36585;SDS011;22591;48.314;11.562;2023-11-19T03:45:12;0.30;;;0.30;;
36585;SDS011;22591;48.314;11.562;2023-11-19T03:47:40;0.20;;;0.20;;
36585;SDS011;22591;48.314;11.562;2023-11-19T03:50:07;0.20;;;0.20;;
36585;SDS011;22591;48.314;11.562;2023-11-19T03:52:35;0.20;;;0.20;;
36585;SDS011;22591;48.314;11.562;2023-11-19T03:55:02;0.30;;;0.30;;
36585;SDS011;22591;48.314;11.562;2023-11-19T03:57:31;0.40;;;0.40;;
36585;SDS011;22591;48.314;11.562;2023-11-19T03:59:58;0.25;;;0.25;;
36585;SDS011;22591;48.314;11.562;2023-11-19T04:02:25;0.17;;;0.17;;
36585;SDS011;22591;48.314;11.562;2023-11-19T04:04:55;0.38;;;0.38;;
36585;SDS011;22591;48.314;11.562;2023-11-19T04:07:22;0.30;;;0.30;;
36585;SDS011;22591;48.314;11.562;2023-11-19T04:09:48;0.22;;;0.22;;
36585;SDS011;22591;48.314;11.562;2023-11-19T04:12:14;0.30;;;0.30;;
36585;SDS011;22591;48.314;11.562;2023-11-19T04:14:41;0.20;;;0.20;;
36585;SDS011;22591;48.314;11.562;2023-11-19T04:17:06;0.30;;;0.30;;
36585;SDS011;22591;48.314;11.562;2023-11-19T04:19:33;0.17;;;0.17;;
36585;SDS011;22591;48.314;11.562;2023-11-19T04:22:00;0.20;;;0.20;;
36585;SDS011;22591;48.314;11.562;2023-11-19T04:24:26;0.30;;;0.30;;
36585;SDS011;22591;48.314;11.562;2023-11-19T04:26:54;0.35;;;0.35;;
36585;SDS011;22591;48.314;11.562;2023-11-19T04:29:22;0.35;;;0.35;;
36585;SDS011;22591;48.314;11.562;2023-11-19T04:31:49;0.20;;;0.20;;
36585;SDS011;22591;48.314;11.562;2023-11-19T04:34:16;0.30;;;0.30;;
36585;SDS011;22591;48.314;11.562;2023-11-19T04:36:42;0.20;;;0.20;;
36585;SDS011;22591;48.314;11.562;2023-11-19T04:39:09;0.20;;;0.20;;
36585;SDS011;22591;48.314;11.562;2023-11-19T04:41:47;0.30;;;0.30;;
36585;SDS011;22591;48.314;11.562;2023-11-19T04:44:19;0.20;;;0.20;;
36585;SDS011;22591;48.314;11.562;2023-11-19T04:46:46;0.30;;;0.30;;
36585;SDS011;22591;48.314;11.562;2023-11-19T04:49:13;0.30;;;0.30;;
36585;SDS011;22591;48.314;11.562;2023-11-19T04:51:45;0.20;;;0.20;;
36585;SDS011;22591;48.314;11.562;2023-11-19T04:54:15;0.22;;;0.22;;
36585;SDS011;22591;48.314;11.562;2023-11-19T04:56:44;0.22;;;0.22;;
36585;SDS011;22591;48.314;11.562;2023-11-19T04:59:12;0.20;;;0.20;;
36585;SDS011;22591;48.314;11.562;2023-11-19T05:01:39;0.20;;;0.20;;
36585;SDS011;22591;48.314;11.562;2023-11-19T05:04:05;0.30;;;0.20;;
36585;SDS011;22591;48.314;11.562;2023-11-19T05:06:32;0.20;;;0.20;;
36585;SDS011;22591;48.314;11.562;2023-11-19T05:08:59;0.20;;;0.20;;
36585;SDS011;22591;48.314;11.562;2023-11-19T05:11:35;0.20;;;0.20;;
36585;SDS011;22591;48.314;11.562;2023-11-19T05:14:07;0.20;;;0.20;;
36585;SDS011;22591;48.314;11.562;2023-11-19T05:16:34;0.20;;;0.20;;
36585;SDS011;22591;48.314;11.562;2023-11-19T05:19:01;0.20;;;0.20;;
36585;SDS011;22591;48.314;11.562;2023-11-19T05:21:26;0.30;;;0.30;;
36585;SDS011;22591;48.314;11.562;2023-11-19T05:23:53;0.20;;;0.20;;
36585;SDS011;22591;48.314;11.562;2023-11-19T05:26:22;0.20;;;0.20;;
36585;SDS011;22591;48.314;11.562;2023-11-19T05:28:50;0.20;;;0.20;;
36585;SDS011;22591;48.314;11.562;2023-11-19T05:31:16;0.20;;;0.20;;
36585;SDS011;22591;48.314;11.562;2023-11-19T05:33:45;0.20;;;0.20;;
36585;SDS011;22591;48.314;11.562;2023-11-19T05:36:11;0.20;;;0.20;;
36585;SDS011;22591;48.314;11.562;2023-11-19T05:38:38;0.22;;;0.10;;
36585;SDS011;22591;48.314;11.562;2023-11-19T05:41:04;0.17;;;0.17;;
36585;SDS011;22591;48.314;11.562;2023-11-19T05:43:30;0.20;;;0.20;;
36585;SDS011;22591;48.314;11.562;2023-11-19T05:45:57;0.20;;;0.20;;
36585;SDS011;22591;48.314;11.562;2023-11-19T05:48:25;0.30;;;0.30;;
36585;SDS011;22591;48.314;11.562;2023-11-19T05:50:52;0.30;;;0.30;;
36585;SDS011;22591;48.314;11.562;2023-11-19T05:53:18;0.17;;;0.17;;
36585;SDS011;22591;48.314;11.562;2023-11-19T05:55:44;0.30;;;0.30;;
36585;SDS011;22591;48.314;11.562;2023-11-19T05:58:22;0.10;;;0.10;;
36585;SDS011;22591;48.314;11.562;2023-11-19T06:00:49;0.20;;;0.20;;
36585;SDS011;22591;48.314;11.562;2023-11-19T06:03:16;0.20;;;0.20;;
36585;SDS011;22591;48.314;11.562;2023-11-19T06:05:44;0.20;;;0.20;;
36585;SDS011;22591;48.314;11.562;2023-11-19T06:08:14;0.20;;;0.20;;
36585;SDS011;22591;48.314;11.562;2023-11-19T06:10:42;0.20;;;0.20;;
36585;SDS011;22591;48.314;11.562;2023-11-19T06:13:08;0.28;;;0.28;;
36585;SDS011;22591;48.314;11.562;2023-11-19T06:15:37;0.10;;;0.10;;
36585;SDS011;22591;48.314;11.562;2023-11-19T06:18:04;0.20;;;0.20;;
36585;SDS011;22591;48.314;11.562;2023-11-19T06:20:30;0.10;;;0.10;;
36585;SDS011;22591;48.314;11.562;2023-11-19T06:22:58;0.20;;;0.20;;
36585;SDS011;22591;48.314;11.562;2023-11-19T06:25:27;0.22;;;0.22;;
36585;SDS011;22591;48.314;11.562;2023-11-19T06:27:55;0.15;;;0.15;;
36585;SDS011;22591;48.314;11.562;2023-11-19T06:30:23;0.17;;;0.17;;
36585;SDS011;22591;48.314;11.562;2023-11-19T06:32:48;0.10;;;0.10;;
36585;SDS011;22591;48.314;11.562;2023-11-19T06:35:15;0.22;;;0.22;;
36585;SDS011;22591;48.314;11.562;2023-11-19T06:37:41;0.20;;;0.20;;
36585;SDS011;22591;48.314;11.562;2023-11-19T06:40:07;0.13;;;0.13;;
36585;SDS011;22591;48.314;11.562;2023-11-19T06:42:35;0.20;;;0.20;;
36585;SDS011;22591;48.314;11.562;2023-11-19T06:45:02;0.20;;;0.20;;
36585;SDS011;22591;48.314;11.562;2023-11-19T06:47:30;0.10;;;0.10;;
36585;SDS011;22591;48.314;11.562;2023-11-19T06:49:55;0.20;;;0.20;;
36585;SDS011;22591;48.314;11.562;2023-11-19T06:52:22;0.20;;;0.20;;
36585;SDS011;22591;48.314;11.562;2023-11-19T06:54:48;0.20;;;0.20;;
36585;SDS011;22591;48.314;11.562;2023-11-19T06:57:15;0.15;;;0.15;;
36585;SDS011;22591;48.314;11.562;2023-11-19T06:59:43;0.15;;;0.15;;
36585;SDS011;22591;48.314;11.562;2023-11-19T07:02:10;0.30;;;0.20;;
36585;SDS011;22591;48.314;11.562;2023-11-19T07:04:36;0.10;;;0.10;;
36585;SDS011;22591;48.314;11.562;2023-11-19T07:07:03;0.20;;;0.20;;
36585;SDS011;22591;48.314;11.562;2023-11-19T07:09:31;0.20;;;0.20;;
36585;SDS011;22591;48.314;11.562;2023-11-19T07:11:58;0.20;;;0.20;;
36585;SDS011;22591;48.314;11.562;2023-11-19T07:14:28;0.20;;;0.20;;
36585;SDS011;22591;48.314;11.562;2023-11-19T07:16:55;1.63;;;0.50;;
36585;SDS011;22591;48.314;11.562;2023-11-19T07:19:22;0.20;;;0.20;;
36585;SDS011;22591;48.314;11.562;2023-11-19T07:21:48;0.17;;;0.17;;
36585;SDS011;22591;48.314;11.562;2023-11-19T07:24:15;1.00;;;0.15;;
36585;SDS011;22591;48.314;11.562;2023-11-19T07:26:43;2.05;;;0.30;;
36585;SDS011;22591;48.314;11.562;2023-11-19T07:29:10;0.15;;;0.15;;
36585;SDS011;22591;48.314;11.562;2023-11-19T07:31:37;0.45;;;0.38;;
36585;SDS011;22591;48.314;11.562;2023-11-19T07:34:03;0.57;;;0.30;;
36585;SDS011;22591;48.314;11.562;2023-11-19T07:36:33;1.27;;;0.50;;
36585;SDS011;22591;48.314;11.562;2023-11-19T07:38:58;1.98;;;0.10;;
36585;SDS011;22591;48.314;11.562;2023-11-19T07:41:25;0.20;;;0.20;;
36585;SDS011;22591;48.314;11.562;2023-11-19T07:43:52;0.30;;;0.30;;
36585;SDS011;22591;48.314;11.562;2023-11-19T07:46:19;3.00;;;0.52;;
36585;SDS011;22591;48.314;11.562;2023-11-19T07:48:46;0.43;;;0.40;;
36585;SDS011;22591;48.314;11.562;2023-11-19T07:51:12;0.32;;;0.32;;
36585;SDS011;22591;48.314;11.562;2023-11-19T07:53:39;1.48;;;0.75;;
36585;SDS011;22591;48.314;11.562;2023-11-19T07:56:06;0.50;;;0.43;;
36585;SDS011;22591;48.314;11.562;2023-11-19T07:58:33;0.88;;;0.57;;
36585;SDS011;22591;48.314;11.562;2023-11-19T08:01:00;1.73;;;0.60;;
36585;SDS011;22591;48.314;11.562;2023-11-19T08:03:30;2.33;;;0.60;;
36585;SDS011;22591;48.314;11.562;2023-11-19T08:05:57;0.98;;;0.68;;
36585;SDS011;22591;48.314;11.562;2023-11-19T08:08:22;1.00;;;0.60;;
36585;SDS011;22591;48.314;11.562;2023-11-19T08:10:49;1.20;;;0.77;;
36585;SDS011;22591;48.314;11.562;2023-11-19T08:13:16;0.60;;;0.60;;
36585;SDS011;22591;48.314;11.562;2023-11-19T08:15:44;2.45;;;0.70;;
36585;SDS011;22591;48.314;11.562;2023-11-19T08:18:10;0.65;;;0.45;;
36585;SDS011;22591;48.314;11.562;2023-11-19T08:20:36;0.60;;;0.60;;
36585;SDS011;22591;48.314;11.562;2023-11-19T08:23:03;0.52;;;0.52;;
36585;SDS011;22591;48.314;11.562;2023-11-19T08:25:31;2.20;;;0.82;;
36585;SDS011;22591;48.314;11.562;2023-11-19T08:27:58;1.92;;;0.63;;
36585;SDS011;22591;48.314;11.562;2023-11-19T08:30:24;2.38;;;0.80;;
36585;SDS011;22591;48.314;11.562;2023-11-19T08:32:51;1.25;;;0.70;;
36585;SDS011;22591;48.314;11.562;2023-11-19T08:35:17;1.15;;;0.80;;
36585;SDS011;22591;48.314;11.562;2023-11-19T08:37:44;0.85;;;0.55;;
36585;SDS011;22591;48.314;11.562;2023-11-19T08:40:10;0.75;;;0.60;;
36585;SDS011;22591;48.314;11.562;2023-11-19T08:42:37;0.75;;;0.70;;
36585;SDS011;22591;48.314;11.562;2023-11-19T08:45:07;1.50;;;0.88;;
36585;SDS011;22591;48.314;11.562;2023-11-19T08:47:37;1.30;;;0.73;;
36585;SDS011;22591;48.314;11.562;2023-11-19T08:50:04;0.90;;;0.73;;
36585;SDS011;22591;48.314;11.562;2023-11-19T08:52:31;0.88;;;0.60;;
36585;SDS011;22591;48.314;11.562;2023-11-19T08:54:58;1.05;;;0.70;;
36585;SDS011;22591;48.314;11.562;2023-11-19T08:57:25;1.10;;;0.82;;
36585;SDS011;22591;48.314;11.562;2023-11-19T08:59:51;2.58;;;0.65;;
36585;SDS011;22591;48.314;11.562;2023-11-19T09:02:17;0.57;;;0.57;;
36585;SDS011;22591;48.314;11.562;2023-11-19T09:04:44;0.70;;;0.65;;
36585;SDS011;22591;48.314;11.562;2023-11-19T09:07:10;1.45;;;0.60;;
36585;SDS011;22591;48.314;11.562;2023-11-19T09:09:35;4.00;;;1.05;;
36585;SDS011;22591;48.314;11.562;2023-11-19T09:12:03;2.60;;;0.75;;
36585;SDS011;22591;48.314;11.562;2023-11-19T09:14:30;0.75;;;0.70;;
36585;SDS011;22591;48.314;11.562;2023-11-19T09:16:56;1.42;;;0.90;;
36585;SDS011;22591;48.314;11.562;2023-11-19T09:19:24;2.95;;;0.80;;
36585;SDS011;22591;48.314;11.562;2023-11-19T09:21:52;1.23;;;0.60;;
36585;SDS011;22591;48.314;11.562;2023-11-19T09:24:19;0.75;;;0.60;;
36585;SDS011;22591;48.314;11.562;2023-11-19T09:26:46;0.43;;;0.43;;
36585;SDS011;22591;48.314;11.562;2023-11-19T09:29:13;0.52;;;0.50;;
36585;SDS011;22591;48.314;11.562;2023-11-19T09:31:40;1.88;;;0.55;;
36585;SDS011;22591;48.314;11.562;2023-11-19T09:34:06;1.02;;;0.57;;
36585;SDS011;22591;48.314;11.562;2023-11-19T09:36:34;0.82;;;0.70;;
36585;SDS011;22591;48.314;11.562;2023-11-19T09:39:00;2.05;;;0.63;;
36585;SDS011;22591;48.314;11.562;2023-11-19T09:41:29;2.03;;;0.50;;
36585;SDS011;22591;48.314;11.562;2023-11-19T09:43:56;1.17;;;0.70;;
36585;SDS011;22591;48.314;11.562;2023-11-19T09:46:23;0.77;;;0.77;;
36585;SDS011;22591;48.314;11.562;2023-11-19T09:48:52;0.60;;;0.60;;
36585;SDS011;22591;48.314;11.562;2023-11-19T09:51:22;0.50;;;0.50;;
36585;SDS011;22591;48.314;11.562;2023-11-19T09:53:49;0.70;;;0.40;;
36585;SDS011;22591;48.314;11.562;2023-11-19T09:56:15;0.73;;;0.68;;
36585;SDS011;22591;48.314;11.562;2023-11-19T09:58:44;1.42;;;0.70;;
36585;SDS011;22591;48.314;11.562;2023-11-19T10:01:09;5.97;;;0.88;;
36585;SDS011;22591;48.314;11.562;2023-11-19T10:03:37;1.30;;;0.60;;
36585;SDS011;22591;48.314;11.562;2023-11-19T10:06:07;0.90;;;0.55;;
36585;SDS011;22591;48.314;11.562;2023-11-19T10:08:37;2.17;;;0.50;;
36585;SDS011;22591;48.314;11.562;2023-11-19T10:11:09;1.92;;;0.40;;
36585;SDS011;22591;48.314;11.562;2023-11-19T10:13:39;0.52;;;0.40;;
36585;SDS011;22591;48.314;11.562;2023-11-19T10:16:09;0.55;;;0.52;;
36585;SDS011;22591;48.314;11.562;2023-11-19T10:18:42;1.58;;;0.77;;
36585;SDS011;22591;48.314;11.562;2023-11-19T10:21:13;0.45;;;0.45;;
36585;SDS011;22591;48.314;11.562;2023-11-19T10:23:56;0.95;;;0.30;;
36585;SDS011;22591;48.314;11.562;2023-11-19T10:26:26;0.60;;;0.50;;
36585;SDS011;22591;48.314;11.562;2023-11-19T10:28:54;0.45;;;0.45;;
36585;SDS011;22591;48.314;11.562;2023-11-19T10:31:21;0.32;;;0.30;;
36585;SDS011;22591;48.314;11.562;2023-11-19T10:33:52;3.45;;;0.60;;
36585;SDS011;22591;48.314;11.562;2023-11-19T10:36:19;0.98;;;0.88;;
36585;SDS011;22591;48.314;11.562;2023-11-19T10:38:52;0.70;;;0.40;;
36585;SDS011;22591;48.314;11.562;2023-11-19T10:41:28;2.30;;;0.60;;
36585;SDS011;22591;48.314;11.562;2023-11-19T10:43:55;0.50;;;0.50;;
36585;SDS011;22591;48.314;11.562;2023-11-19T10:46:22;3.88;;;0.50;;
36585;SDS011;22591;48.314;11.562;2023-11-19T10:48:48;0.57;;;0.47;;
36585;SDS011;22591;48.314;11.562;2023-11-19T10:51:19;1.25;;;0.50;;
36585;SDS011;22591;48.314;11.562;2023-11-19T10:53:49;0.75;;;0.40;;
36585;SDS011;22591;48.314;11.562;2023-11-19T10:56:17;0.50;;;0.50;;
36585;SDS011;22591;48.314;11.562;2023-11-19T10:58:46;0.82;;;0.60;;
36585;SDS011;22591;48.314;11.562;2023-11-19T11:01:16;0.60;;;0.60;;
36585;SDS011;22591;48.314;11.562;2023-11-19T11:03:47;0.35;;;0.35;;
36585;SDS011;22591;48.314;11.562;2023-11-19T11:06:17;4.70;;;0.60;;
36585;SDS011;22591;48.314;11.562;2023-11-19T11:08:46;0.43;;;0.40;;
36585;SDS011;22591;48.314;11.562;2023-11-19T11:11:14;0.50;;;0.50;;
36585;SDS011;22591;48.314;11.562;2023-11-19T11:13:47;1.73;;;0.40;;
36585;SDS011;22591;48.314;11.562;2023-11-19T11:16:19;1.95;;;0.50;;
36585;SDS011;22591;48.314;11.562;2023-11-19T11:18:48;1.55;;;0.40;;
36585;SDS011;22591;48.314;11.562;2023-11-19T11:21:17;0.40;;;0.40;;
36585;SDS011;22591;48.314;11.562;2023-11-19T11:24:02;0.45;;;0.32;;
36585;SDS011;22591;48.314;11.562;2023-11-19T11:36:19;0.47;;;0.40;;
36585;SDS011;22591;48.314;11.562;2023-11-19T11:38:47;0.25;;;0.25;;
36585;SDS011;22591;48.314;11.562;2023-11-19T11:41:23;0.60;;;0.60;;
36585;SDS011;22591;48.314;11.562;2023-11-19T11:43:54;1.73;;;0.47;;
36585;SDS011;22591;48.314;11.562;2023-11-19T11:54:11;4.57;;;0.40;;
36585;SDS011;22591;48.314;11.562;2023-11-19T11:57:07;0.47;;;0.47;;
36585;SDS011;22591;48.314;11.562;2023-11-19T12:00:06;0.68;;;0.40;;
36585;SDS011;22591;48.314;11.562;2023-11-19T12:02:28;0.88;;;0.88;;
36585;SDS011;22591;48.314;11.562;2023-11-19T12:04:54;4.82;;;3.00;;
36585;SDS011;22591;48.314;11.562;2023-11-19T12:07:23;8.55;;;4.75;;
36585;SDS011;22591;48.314;11.562;2023-11-19T12:09:53;12.30;;;4.57;;
36585;SDS011;22591;48.314;11.562;2023-11-19T12:12:33;9.60;;;5.38;;
36585;SDS011;22591;48.314;11.562;2023-11-19T12:15:09;8.23;;;4.97;;
36585;SDS011;22591;48.314;11.562;2023-11-19T12:17:49;11.88;;;5.35;;
36585;SDS011;22591;48.314;11.562;2023-11-19T12:20:20;8.07;;;4.85;;
36585;SDS011;22591;48.314;11.562;2023-11-19T12:22:49;7.90;;;4.57;;
36585;SDS011;22591;48.314;11.562;2023-11-19T12:25:17;7.57;;;4.35;;
36585;SDS011;22591;48.314;11.562;2023-11-19T12:27:46;7.03;;;3.65;;
36585;SDS011;22591;48.314;11.562;2023-11-19T12:30:16;6.38;;;3.83;;
36585;SDS011;22591;48.314;11.562;2023-11-19T12:32:53;7.82;;;3.65;;
36585;SDS011;22591;48.314;11.562;2023-11-19T12:35:20;6.60;;;3.88;;
36585;SDS011;22591;48.314;11.562;2023-11-19T12:37:47;6.03;;;3.63;;
36585;SDS011;22591;48.314;11.562;2023-11-19T12:40:17;6.57;;;3.85;;
36585;SDS011;22591;48.314;11.562;2023-11-19T12:42:46;4.85;;;4.07;;
36585;SDS011;22591;48.314;11.562;2023-11-19T12:45:13;8.88;;;3.95;;
36585;SDS011;22591;48.314;11.562;2023-11-19T12:47:40;8.48;;;4.00;;
36585;SDS011;22591;48.314;11.562;2023-11-19T12:50:07;6.65;;;3.72;;
36585;SDS011;22591;48.314;11.562;2023-11-19T12:52:37;5.00;;;3.90;;
36585;SDS011;22591;48.314;11.562;2023-11-19T12:57:52;5.03;;;3.45;;
36585;SDS011;22591;48.314;11.562;2023-11-19T13:00:21;9.48;;;4.10;;
36585;SDS011;22591;48.314;11.562;2023-11-19T13:02:53;4.72;;;3.13;;
36585;SDS011;22591;48.314;11.562;2023-11-19T13:05:33;3.92;;;3.17;;
36585;SDS011;22591;48.314;11.562;2023-11-19T13:08:03;5.28;;;3.65;;
36585;SDS011;22591;48.314;11.562;2023-11-19T13:10:55;5.47;;;3.92;;
36585;SDS011;22591;48.314;11.562;2023-11-19T13:13:21;6.20;;;3.97;;
36585;SDS011;22591;48.314;11.562;2023-11-19T13:15:48;7.70;;;3.80;;
36585;SDS011;22591;48.314;11.562;2023-11-19T13:18:15;4.60;;;3.33;;
36585;SDS011;22591;48.314;11.562;2023-11-19T13:20:43;6.57;;;3.92;;
36585;SDS011;22591;48.314;11.562;2023-11-19T13:23:10;5.75;;;3.60;;
36585;SDS011;22591;48.314;11.562;2023-11-19T13:25:37;3.70;;;3.33;;
36585;SDS011;22591;48.314;11.562;2023-11-19T13:28:03;5.95;;;3.95;;
36585;SDS011;22591;48.314;11.562;2023-11-19T13:30:32;6.35;;;3.58;;
36585;SDS011;22591;48.314;11.562;2023-11-19T13:32:59;6.05;;;3.78;;
36585;SDS011;22591;48.314;11.562;2023-11-19T13:35:27;4.85;;;3.38;;
36585;SDS011;22591;48.314;11.562;2023-11-19T13:37:54;5.30;;;3.33;;
36585;SDS011;22591;48.314;11.562;2023-11-19T13:40:19;4.68;;;3.20;;
36585;SDS011;22591;48.314;11.562;2023-11-19T13:42:48;4.63;;;3.40;;
36585;SDS011;22591;48.314;11.562;2023-11-19T13:45:15;5.82;;;3.55;;
36585;SDS011;22591;48.314;11.562;2023-11-19T13:47:45;6.97;;;4.05;;
36585;SDS011;22591;48.314;11.562;2023-11-19T13:50:14;5.78;;;3.75;;
36585;SDS011;22591;48.314;11.562;2023-11-19T13:52:44;4.22;;;3.47;;
36585;SDS011;22591;48.314;11.562;2023-11-19T13:55:13;4.50;;;3.60;;
36585;SDS011;22591;48.314;11.562;2023-11-19T13:57:40;6.10;;;3.65;;
36585;SDS011;22591;48.314;11.562;2023-11-19T14:00:07;6.22;;;3.35;;
36585;SDS011;22591;48.314;11.562;2023-11-19T14:02:39;5.85;;;3.30;;
36585;SDS011;22591;48.314;11.562;2023-11-19T14:05:06;3.42;;;3.13;;
36585;SDS011;22591;48.314;11.562;2023-11-19T14:07:32;6.68;;;3.40;;
36585;SDS011;22591;48.314;11.562;2023-11-19T14:09:59;7.53;;;3.95;;
36585;SDS011;22591;48.314;11.562;2023-11-19T14:12:26;7.07;;;3.67;;
36585;SDS011;22591;48.314;11.562;2023-11-19T14:14:53;5.47;;;3.70;;
36585;SDS011;22591;48.314;11.562;2023-11-19T14:17:21;8.82;;;3.60;;
36585;SDS011;22591;48.314;11.562;2023-11-19T14:19:48;8.32;;;3.35;;
36585;SDS011;22591;48.314;11.562;2023-11-19T14:22:15;6.10;;;3.55;;
36585;SDS011;22591;48.314;11.562;2023-11-19T14:24:40;9.98;;;3.70;;
36585;SDS011;22591;48.314;11.562;2023-11-19T14:27:09;5.03;;;3.00;;
36585;SDS011;22591;48.314;11.562;2023-11-19T14:29:37;6.57;;;3.58;;
36585;SDS011;22591;48.314;11.562;2023-11-19T14:32:04;4.53;;;3.05;;
36585;SDS011;22591;48.314;11.562;2023-11-19T14:34:31;4.68;;;3.10;;
36585;SDS011;22591;48.314;11.562;2023-11-19T14:36:59;4.47;;;3.33;;
36585;SDS011;22591;48.314;11.562;2023-11-19T14:39:26;4.38;;;3.13;;
36585;SDS011;22591;48.314;11.562;2023-11-19T14:41:53;3.97;;;3.38;;
36585;SDS011;22591;48.314;11.562;2023-11-19T14:44:24;3.90;;;2.53;;
36585;SDS011;22591;48.314;11.562;2023-11-19T14:46:51;4.50;;;3.10;;
36585;SDS011;22591;48.314;11.562;2023-11-19T14:49:18;7.85;;;3.25;;
36585;SDS011;22591;48.314;11.562;2023-11-19T14:51:44;4.70;;;3.08;;
36585;SDS011;22591;48.314;11.562;2023-11-19T14:54:11;9.52;;;3.10;;
36585;SDS011;22591;48.314;11.562;2023-11-19T14:56:42;6.28;;;2.97;;
36585;SDS011;22591;48.314;11.562;2023-11-19T14:59:10;6.30;;;2.95;;
36585;SDS011;22591;48.314;11.562;2023-11-19T15:01:37;4.18;;;2.92;;
36585;SDS011;22591;48.314;11.562;2023-11-19T15:04:06;4.05;;;2.85;;